Time;durP1;ratioP1;P1;durP2;ratioP2;P2;SDS_P1;SDS_P2;PMS_P1;PMS_P2;Temp;Humidity;BMP_temperature;BMP_pressure;BME280_temperature;BME280_humidity;BME280_pressure;Samples;Min_cycle;Max_cycle;Signal;HPM_P1;HPM_P2
2021/08/25 00:00:27;;;;;;;0.70;0.70;;;14.60;91.60;;;;;;5033641;28;20094;-80
2021/08/25 00:02:53;;;;;;;1.17;1.00;;;14.60;91.70;;;;;;5033241;28;20526;-81
2021/08/25 00:05:19;;;;;;;2.08;1.00;;;14.60;91.60;;;;;;5033091;28;20103;-81
2021/08/25 00:07:44;;;;;;;1.90;1.27;;;14.60;91.70;;;;;;5015764;28;20124;-80
2021/08/25 00:10:10;;;;;;;1.35;1.08;;;14.60;91.60;;;;;;5033682;28;20025;-80
2021/08/25 00:12:36;;;;;;;1.35;0.90;;;14.50;91.60;;;;;;5033578;28;20025;-81
2021/08/25 00:15:03;;;;;;;2.05;1.25;;;14.50;91.60;;;;;;5015972;28;20021;-81
2021/08/25 00:17:28;;;;;;;1.75;1.30;;;14.50;91.60;;;;;;5032756;28;20033;-82
2021/08/25 00:19:54;;;;;;;1.42;1.23;;;14.50;91.60;;;;;;5033436;28;20068;-81
2021/08/25 00:22:20;;;;;;;1.13;1.02;;;14.50;91.60;;;;;;5033711;28;20083;-81
2021/08/25 00:24:46;;;;;;;2.35;1.30;;;14.50;91.70;;;;;;5033410;28;20026;-81
2021/08/25 00:27:11;;;;;;;1.70;1.60;;;14.50;91.70;;;;;;5033463;28;20087;-81
2021/08/25 00:29:37;;;;;;;1.80;1.40;;;14.50;91.70;;;;;;5033301;28;20065;-81
2021/08/25 00:32:03;;;;;;;1.52;1.25;;;14.40;91.70;;;;;;5032944;28;20020;-81
2021/08/25 00:34:28;;;;;;;2.42;1.50;;;14.40;91.70;;;;;;5015606;28;20025;-81
2021/08/25 00:36:53;;;;;;;1.50;1.20;;;14.40;91.70;;;;;;5033164;28;20526;-80
2021/08/25 00:39:19;;;;;;;1.38;1.25;;;14.40;91.70;;;;;;5033295;28;20147;-81
2021/08/25 00:41:44;;;;;;;1.33;1.23;;;14.40;91.70;;;;;;5033234;28;20022;-81
2021/08/25 00:44:12;;;;;;;1.70;1.50;;;14.40;91.80;;;;;;5033395;28;20382;-81
2021/08/25 00:46:37;;;;;;;1.98;1.60;;;14.40;91.80;;;;;;5032717;28;20026;-81
2021/08/25 00:49:03;;;;;;;1.33;1.20;;;14.30;91.80;;;;;;5032919;28;20053;-81
2021/08/25 00:51:29;;;;;;;2.30;1.30;;;14.30;91.80;;;;;;5033115;28;20049;-81
2021/08/25 00:53:55;;;;;;;1.55;1.35;;;14.30;91.80;;;;;;5033103;28;20032;-80
2021/08/25 00:56:22;;;;;;;1.98;1.35;;;14.30;91.80;;;;;;5033143;28;20018;-80
2021/08/25 00:58:49;;;;;;;2.17;1.67;;;14.30;91.80;;;;;;5033107;28;20486;-81
2021/08/25 01:01:36;;;;;;;2.10;1.42;;;14.30;91.80;;;;;;5033171;28;20026;-81
2021/08/25 01:04:06;;;;;;;1.77;1.30;;;14.30;91.80;;;;;;5033325;28;20029;-81
2021/08/25 01:06:34;;;;;;;1.90;1.15;;;14.20;91.80;;;;;;5033097;28;20021;-81
2021/08/25 01:09:03;;;;;;;2.28;1.55;;;14.20;91.90;;;;;;5032948;28;20044;-81
2021/08/25 01:11:33;;;;;;;1.33;1.10;;;14.20;91.90;;;;;;5033352;28;20481;-81
2021/08/25 01:13:59;;;;;;;1.98;1.10;;;14.20;91.90;;;;;;5032442;28;20033;-80
2021/08/25 01:16:25;;;;;;;1.65;1.30;;;14.20;91.90;;;;;;5033463;28;20036;-81
2021/08/25 01:18:51;;;;;;;2.15;1.50;;;14.20;91.90;;;;;;5036588;28;20056;-80
2021/08/25 01:21:17;;;;;;;1.55;1.45;;;14.20;91.80;;;;;;5036705;28;20065;-80
2021/08/25 01:23:45;;;;;;;1.15;1.00;;;14.20;91.90;;;;;;5036529;28;20025;-81
2021/08/25 01:26:15;;;;;;;1.45;1.15;;;14.20;91.90;;;;;;5036633;28;20021;-80
2021/08/25 01:28:55;;;;;;;1.85;1.17;;;14.20;91.90;;;;;;5036030;28;20536;-81
2021/08/25 01:31:27;;;;;;;1.50;1.35;;;14.20;91.80;;;;;;5036715;28;20061;-80
2021/08/25 01:34:08;;;;;;;1.38;1.27;;;14.20;91.80;;;;;;5036492;28;20053;-80
2021/08/25 01:36:35;;;;;;;1.48;1.38;;;14.20;91.80;;;;;;5036476;28;20033;-80
2021/08/25 01:39:01;;;;;;;1.17;1.10;;;14.20;91.80;;;;;;5036200;28;20037;-80
2021/08/25 01:41:27;;;;;;;2.13;1.45;;;14.20;91.80;;;;;;5036176;28;20032;-81
2021/08/25 01:44:00;;;;;;;1.85;1.30;;;14.20;91.80;;;;;;5035849;28;20037;-81
2021/08/25 01:46:35;;;;;;;1.85;1.75;;;14.20;91.80;;;;;;5036057;28;20463;-80
2021/08/25 01:49:05;;;;;;;1.67;1.35;;;14.20;91.80;;;;;;5035900;28;20056;-80
2021/08/25 01:51:31;;;;;;;2.03;1.50;;;14.20;91.90;;;;;;5036108;28;20064;-80
2021/08/25 01:53:58;;;;;;;2.08;1.60;;;14.20;91.90;;;;;;5035991;28;20022;-80
2021/08/25 01:56:24;;;;;;;1.98;1.48;;;14.10;91.90;;;;;;5036015;28;20053;-79
2021/08/25 01:58:50;;;;;;;1.90;1.70;;;14.20;91.90;;;;;;5035421;28;20061;-81
2021/08/25 02:01:15;;;;;;;2.03;1.27;;;14.20;91.90;;;;;;5035976;28;20107;-80
2021/08/25 02:03:41;;;;;;;2.75;1.60;;;14.10;91.90;;;;;;5035983;28;20355;-80
2021/08/25 02:06:06;;;;;;;1.35;1.25;;;14.10;91.90;;;;;;5035714;28;20018;-80
2021/08/25 02:08:32;;;;;;;1.67;1.35;;;14.10;91.90;;;;;;5035791;28;20375;-81
2021/08/25 02:10:58;;;;;;;2.25;1.45;;;14.10;92.00;;;;;;5035749;28;20018;-80
2021/08/25 02:13:24;;;;;;;1.70;1.33;;;14.10;91.90;;;;;;5017377;28;20478;-81
2021/08/25 02:15:49;;;;;;;1.90;1.23;;;14.10;91.90;;;;;;5035669;28;20100;-80
2021/08/25 02:18:15;;;;;;;2.20;1.80;;;14.10;92.00;;;;;;5035429;28;20120;-82
2021/08/25 02:20:40;;;;;;;2.15;1.75;;;14.10;92.00;;;;;;5035537;28;20025;-80
2021/08/25 02:23:06;;;;;;;1.75;1.65;;;14.10;92.00;;;;;;5035550;28;20017;-80
2021/08/25 02:25:31;;;;;;;2.75;1.75;;;14.10;92.00;;;;;;5035520;28;20025;-80
2021/08/25 02:27:57;;;;;;;2.67;2.35;;;14.10;92.00;;;;;;5034567;28;20022;-81
2021/08/25 02:30:22;;;;;;;1.73;1.50;;;14.00;92.00;;;;;;5035289;28;20034;-81
2021/08/25 02:32:48;;;;;;;2.20;1.63;;;14.10;92.00;;;;;;5035432;28;20021;-80
2021/08/25 02:35:14;;;;;;;2.47;1.80;;;14.00;92.00;;;;;;5035291;28;20155;-81
2021/08/25 02:37:39;;;;;;;2.00;1.50;;;14.00;92.00;;;;;;5035099;28;20083;-80
2021/08/25 02:40:07;;;;;;;2.38;1.60;;;14.00;92.00;;;;;;5035319;28;20436;-80
2021/08/25 02:42:33;;;;;;;1.90;1.52;;;14.00;92.00;;;;;;5034732;28;20017;-80
2021/08/25 02:44:59;;;;;;;1.70;1.30;;;13.90;92.00;;;;;;5035006;28;20030;-79
2021/08/25 02:47:24;;;;;;;1.50;1.40;;;14.00;92.00;;;;;;5034804;28;20033;-80
2021/08/25 02:49:50;;;;;;;1.77;1.42;;;13.90;92.00;;;;;;5035039;28;20465;-80
2021/08/25 02:52:15;;;;;;;1.73;1.40;;;13.90;92.00;;;;;;5034930;28;20017;-80
2021/08/25 02:54:41;;;;;;;2.08;1.65;;;13.90;92.00;;;;;;5034998;28;20060;-80
2021/08/25 02:57:06;;;;;;;2.10;1.58;;;13.90;92.00;;;;;;5034424;28;20013;-80
2021/08/25 02:59:32;;;;;;;2.67;2.28;;;13.80;92.00;;;;;;5034643;28;20536;-80
2021/08/25 03:01:57;;;;;;;2.08;1.52;;;13.90;92.00;;;;;;5034675;28;20033;-80
2021/08/25 03:04:23;;;;;;;3.05;1.70;;;13.80;92.00;;;;;;5016858;28;20043;-80
2021/08/25 03:06:48;;;;;;;2.10;1.90;;;13.80;92.00;;;;;;5034750;28;20075;-80
2021/08/25 03:09:14;;;;;;;2.55;1.70;;;13.90;92.00;;;;;;5034646;28;20025;-80
2021/08/25 03:11:39;;;;;;;3.33;1.70;;;13.90;92.00;;;;;;5034246;28;20084;-80
2021/08/25 03:14:05;;;;;;;2.17;1.30;;;13.90;92.00;;;;;;5034276;28;20100;-79
2021/08/25 03:16:31;;;;;;;1.65;1.40;;;13.80;92.00;;;;;;5034470;28;20076;-80
2021/08/25 03:18:56;;;;;;;1.90;1.50;;;13.80;92.00;;;;;;5016666;28;20030;-80
2021/08/25 03:21:22;;;;;;;2.17;1.98;;;13.80;92.00;;;;;;5034266;28;20022;-79
2021/08/25 03:23:47;;;;;;;1.98;1.77;;;13.80;92.00;;;;;;5034275;28;20096;-80
2021/08/25 03:26:13;;;;;;;2.15;1.95;;;13.80;92.00;;;;;;5034204;28;20104;-80
2021/08/25 03:28:38;;;;;;;2.10;1.50;;;13.80;92.00;;;;;;5034334;28;20057;-80
2021/08/25 03:31:04;;;;;;;1.95;1.40;;;13.80;92.00;;;;;;5034133;28;20121;-80
2021/08/25 03:33:30;;;;;;;2.08;1.73;;;13.70;92.00;;;;;;5034049;28;20467;-80
2021/08/25 03:35:55;;;;;;;1.90;1.40;;;13.70;92.00;;;;;;5034144;28;20029;-80
2021/08/25 03:38:21;;;;;;;3.53;2.00;;;13.70;92.00;;;;;;5033433;28;20029;-79
2021/08/25 03:40:46;;;;;;;2.72;1.60;;;13.70;92.00;;;;;;5033459;28;20106;-80
2021/08/25 03:43:12;;;;;;;2.03;1.83;;;13.70;92.10;;;;;;5033900;28;20029;-79
2021/08/25 03:45:37;;;;;;;3.75;1.70;;;13.70;92.10;;;;;;5033851;28;20021;-79
2021/08/25 03:48:03;;;;;;;1.60;1.50;;;13.70;92.10;;;;;;5033822;28;20070;-79
2021/08/25 03:50:29;;;;;;;2.83;2.17;;;13.70;92.10;;;;;;5033733;28;20052;-79
2021/08/25 03:52:54;;;;;;;2.35;2.03;;;13.70;92.10;;;;;;5033370;28;20136;-79
2021/08/25 03:55:20;;;;;;;1.73;1.50;;;13.70;92.10;;;;;;5033830;28;20470;-80
2021/08/25 03:57:45;;;;;;;1.60;1.40;;;13.60;92.00;;;;;;5033707;28;20033;-79
2021/08/25 04:00:11;;;;;;;2.92;1.83;;;13.60;92.00;;;;;;5033610;28;20026;-79
2021/08/25 04:02:37;;;;;;;2.45;1.77;;;13.60;92.00;;;;;;5033624;28;20026;-80
2021/08/25 04:05:03;;;;;;;1.60;1.50;;;13.60;92.00;;;;;;5033639;28;20024;-79
2021/08/25 04:07:28;;;;;;;2.20;1.60;;;13.60;92.00;;;;;;5033059;28;20017;-79
2021/08/25 04:09:54;;;;;;;2.42;1.55;;;13.60;92.00;;;;;;5033548;28;20397;-79
2021/08/25 04:12:19;;;;;;;1.98;1.50;;;13.60;92.00;;;;;;5033671;28;20104;-79
2021/08/25 04:14:45;;;;;;;2.13;1.70;;;13.60;92.10;;;;;;5033508;28;20492;-79
2021/08/25 04:17:10;;;;;;;2.25;1.40;;;13.60;92.00;;;;;;5033426;28;20022;-79
2021/08/25 04:19:35;;;;;;;2.78;2.00;;;13.60;92.10;;;;;;5033312;28;20087;-79
2021/08/25 04:22:01;;;;;;;2.90;2.05;;;13.60;92.00;;;;;;5032895;28;20067;-79
2021/08/25 04:24:27;;;;;;;2.42;1.40;;;13.60;92.00;;;;;;5033461;28;20088;-79
2021/08/25 04:26:53;;;;;;;1.45;1.35;;;13.60;92.00;;;;;;5033348;28;20124;-79
2021/08/25 04:29:19;;;;;;;2.22;1.45;;;13.50;92.00;;;;;;5033394;28;20017;-79
2021/08/25 04:31:45;;;;;;;2.20;1.60;;;13.60;92.00;;;;;;5033292;28;20029;-79
2021/08/25 04:34:10;;;;;;;1.63;1.50;;;13.50;92.00;;;;;;5033202;28;20022;-79
2021/08/25 04:36:36;;;;;;;2.63;1.92;;;13.50;92.00;;;;;;5032733;28;20356;-79
2021/08/25 04:39:03;;;;;;;2.80;1.75;;;13.50;92.00;;;;;;5015438;28;20454;-79
2021/08/25 04:41:28;;;;;;;2.20;1.40;;;13.50;92.00;;;;;;5033269;28;20026;-79
2021/08/25 04:43:55;;;;;;;2.05;1.55;;;13.50;92.00;;;;;;5033333;28;20030;-79
2021/08/25 04:46:20;;;;;;;1.55;1.33;;;13.50;92.00;;;;;;5033161;28;20057;-78
2021/08/25 04:48:46;;;;;;;2.97;1.45;;;13.50;92.00;;;;;;5033000;28;20465;-79
2021/08/25 04:51:12;;;;;;;2.05;1.40;;;13.50;92.00;;;;;;5016689;28;20017;-79
2021/08/25 04:53:39;;;;;;;2.50;1.50;;;13.50;92.00;;;;;;5037222;28;20049;-79
2021/08/25 04:56:04;;;;;;;1.85;1.40;;;13.60;92.00;;;;;;5037213;28;20100;-79
2021/08/25 04:58:32;;;;;;;3.15;1.67;;;13.60;92.00;;;;;;5036930;28;20120;-79
2021/08/25 05:00:58;;;;;;;3.20;1.85;;;13.60;92.00;;;;;;5037116;28;20489;-79
2021/08/25 05:03:23;;;;;;;2.40;1.63;;;13.60;92.00;;;;;;5036982;28;20029;-79
2021/08/25 05:05:49;;;;;;;2.45;1.80;;;13.60;91.90;;;;;;5036452;28;20079;-78
2021/08/25 05:08:15;;;;;;;2.15;1.70;;;13.60;91.90;;;;;;5036767;28;20068;-79
2021/08/25 05:10:46;;;;;;;4.07;1.33;;;13.70;92.00;;;;;;5019060;28;20021;-79
2021/08/25 05:13:12;;;;;;;2.95;1.83;;;13.70;91.90;;;;;;5036892;28;20028;-79
2021/08/25 05:15:37;;;;;;;3.88;1.83;;;13.70;91.90;;;;;;5036677;28;20021;-79
2021/08/25 05:18:03;;;;;;;1.65;1.48;;;13.70;91.90;;;;;;5036548;28;20030;-79
2021/08/25 05:20:28;;;;;;;2.35;1.50;;;13.80;91.90;;;;;;5036359;28;20022;-86
2021/08/25 05:22:54;;;;;;;1.75;1.25;;;13.80;91.90;;;;;;5036811;28;20374;-77
2021/08/25 05:25:19;;;;;;;1.75;1.35;;;13.80;91.90;;;;;;5036602;28;20471;-78
2021/08/25 05:27:45;;;;;;;1.92;1.25;;;13.80;91.90;;;;;;5036515;28;20493;-81
2021/08/25 05:30:11;;;;;;;1.70;1.23;;;13.80;91.90;;;;;;5036613;28;20022;-89
2021/08/25 05:32:36;;;;;;;1.00;1.00;;;13.80;91.80;;;;;;5018781;28;20374;-81
2021/08/25 05:35:02;;;;;;;1.20;1.10;;;13.80;91.80;;;;;;5036012;28;20096;-81
2021/08/25 05:37:28;;;;;;;1.75;1.60;;;13.90;91.80;;;;;;5018555;28;20022;-81
2021/08/25 05:39:53;;;;;;;1.33;0.93;;;13.90;91.80;;;;;;5036357;28;20409;-81
2021/08/25 05:42:19;;;;;;;1.65;1.10;;;13.90;91.70;;;;;;5036300;28;20022;-80
2021/08/25 05:44:44;;;;;;;1.10;1.00;;;14.00;91.80;;;;;;5036254;28;20033;-80
2021/08/25 05:47:10;;;;;;;1.08;0.98;;;14.00;91.70;;;;;;5036195;28;20445;-81
2021/08/25 05:49:36;;;;;;;0.93;0.75;;;14.00;91.70;;;;;;5014473;28;20050;-80
2021/08/25 05:52:01;;;;;;;1.00;0.90;;;14.10;91.70;;;;;;5016209;28;20022;-80
2021/08/25 05:54:27;;;;;;;1.10;1.00;;;14.10;91.70;;;;;;5016298;28;20529;-80
2021/08/25 05:56:52;;;;;;;1.17;1.02;;;14.10;91.70;;;;;;5016199;28;20026;-81
2021/08/25 05:59:18;;;;;;;1.45;1.10;;;14.20;91.60;;;;;;5016269;28;20471;-80
2021/08/25 06:01:43;;;;;;;1.45;0.98;;;14.20;91.60;;;;;;5016042;28;20105;-81
2021/08/25 06:04:09;;;;;;;1.75;1.20;;;14.30;91.60;;;;;;5015097;28;20029;-80
2021/08/25 06:06:34;;;;;;;1.38;0.93;;;14.30;91.60;;;;;;5016060;28;20030;-79
2021/08/25 06:09:01;;;;;;;1.42;1.25;;;14.30;91.60;;;;;;5016033;28;20030;-80
2021/08/25 06:11:27;;;;;;;1.17;0.93;;;14.30;91.60;;;;;;5015975;28;20055;-79
2021/08/25 06:13:52;;;;;;;1.20;0.98;;;14.40;91.60;;;;;;5015918;28;20084;-79
2021/08/25 06:16:18;;;;;;;1.10;1.00;;;14.40;91.60;;;;;;5015914;28;20324;-79
2021/08/25 06:18:43;;;;;;;1.33;1.23;;;14.50;91.50;;;;;;5014108;28;20491;-80
2021/08/25 06:21:14;;;;;;;0.80;0.80;;;14.60;91.50;;;;;;5015846;28;20050;-80
2021/08/25 06:23:40;;;;;;;1.10;0.82;;;14.60;91.50;;;;;;5015640;28;20057;-80
2021/08/25 06:26:05;;;;;;;1.27;1.17;;;14.70;91.80;;;;;;5015622;28;20021;-79
2021/08/25 06:28:31;;;;;;;1.73;1.20;;;14.70;91.50;;;;;;5015501;28;20514;-79
2021/08/25 06:30:56;;;;;;;1.73;1.17;;;14.80;91.50;;;;;;5014126;28;20375;-80
2021/08/25 06:33:22;;;;;;;1.08;0.80;;;14.80;91.50;;;;;;5013806;28;20022;-81
2021/08/25 06:35:47;;;;;;;0.80;0.77;;;14.90;91.50;;;;;;5015580;28;20033;-80
2021/08/25 06:38:13;;;;;;;0.63;0.63;;;15.00;91.50;;;;;;5015407;28;20042;-80
2021/08/25 06:40:38;;;;;;;0.82;0.82;;;15.10;91.50;;;;;;5015389;28;20022;-80
2021/08/25 06:43:04;;;;;;;1.00;0.80;;;15.10;91.40;;;;;;5015150;28;20029;-80
2021/08/25 06:45:29;;;;;;;0.60;0.60;;;15.20;91.40;;;;;;5015272;28;20046;-80
2021/08/25 06:47:55;;;;;;;0.85;0.82;;;15.20;91.40;;;;;;5018162;28;20504;-80
2021/08/25 06:50:20;;;;;;;1.08;0.85;;;15.30;91.40;;;;;;5034947;28;20032;-80
2021/08/25 06:52:46;;;;;;;1.20;1.10;;;15.40;91.40;;;;;;5017268;28;20123;-81
2021/08/25 06:55:11;;;;;;;1.08;0.85;;;15.40;91.40;;;;;;5035014;28;20022;-80
2021/08/25 06:57:37;;;;;;;0.70;0.60;;;15.50;91.40;;;;;;5034827;28;20029;-80
2021/08/25 07:00:04;;;;;;;1.13;0.70;;;15.60;91.40;;;;;;5034898;28;20025;-79
2021/08/25 07:02:30;;;;;;;0.63;0.55;;;15.70;91.30;;;;;;5034378;28;20079;-80
2021/08/25 07:04:55;;;;;;;0.93;0.90;;;15.80;91.30;;;;;;5034564;28;20025;-80
2021/08/25 07:07:21;;;;;;;1.17;0.82;;;16.00;91.20;;;;;;5034644;28;20111;-80
2021/08/25 07:09:46;;;;;;;1.08;0.95;;;16.10;91.10;;;;;;5034673;28;20551;-80
2021/08/25 07:12:12;;;;;;;1.33;1.23;;;16.20;91.10;;;;;;5034547;28;20022;-81
2021/08/25 07:14:38;;;;;;;1.70;1.20;;;16.40;91.10;;;;;;5033473;28;20025;-80
2021/08/25 07:17:03;;;;;;;0.73;0.73;;;16.50;91.00;;;;;;5034094;28;20028;-79
2021/08/25 07:19:29;;;;;;;1.65;1.10;;;16.60;91.00;;;;;;5034220;28;20044;-79
2021/08/25 07:21:54;;;;;;;2.05;1.05;;;16.80;90.90;;;;;;5034403;28;20029;-79
2021/08/25 07:24:20;;;;;;;0.88;0.88;;;16.80;90.90;;;;;;5016688;28;20017;-80
2021/08/25 07:26:45;;;;;;;1.42;1.10;;;16.90;90.90;;;;;;5034304;28;20387;-79
2021/08/25 07:29:11;;;;;;;0.70;0.70;;;17.00;90.90;;;;;;5034217;28;20056;-79
2021/08/25 07:31:36;;;;;;;0.75;0.73;;;17.10;90.90;;;;;;5033795;28;20057;-79
2021/08/25 07:34:03;;;;;;;0.85;0.80;;;17.20;90.90;;;;;;5034077;28;20025;-79
2021/08/25 07:36:29;;;;;;;0.60;0.57;;;17.20;90.90;;;;;;5034103;28;20022;-80
2021/08/25 07:38:54;;;;;;;0.75;0.75;;;17.30;90.80;;;;;;5034006;28;20044;-79
2021/08/25 07:41:20;;;;;;;0.90;0.70;;;17.40;90.80;;;;;;5016164;28;20096;-79
2021/08/25 07:43:46;;;;;;;0.85;0.85;;;17.40;90.80;;;;;;5034003;28;20386;-79
2021/08/25 07:46:11;;;;;;;0.60;0.60;;;17.50;90.80;;;;;;5033554;28;20021;-79
2021/08/25 07:48:37;;;;;;;0.95;0.85;;;17.50;90.90;;;;;;5033765;28;20053;-80
2021/08/25 07:51:08;;;;;;;1.00;0.90;;;17.60;90.90;;;;;;5033948;28;20017;-80
2021/08/25 07:53:35;;;;;;;0.60;0.60;;;17.60;90.80;;;;;;5033917;28;20121;-79
2021/08/25 07:56:00;;;;;;;0.82;0.77;;;17.70;90.80;;;;;;5033669;28;20010;-78
2021/08/25 07:58:26;;;;;;;1.15;0.77;;;17.70;90.80;;;;;;5033665;28;20348;-78
2021/08/25 08:00:52;;;;;;;0.60;0.50;;;17.80;90.70;;;;;;5033221;28;20021;-79
2021/08/25 08:03:17;;;;;;;0.52;0.40;;;17.90;90.70;;;;;;5033685;28;20386;-78
2021/08/25 08:05:43;;;;;;;0.50;0.50;;;17.90;90.70;;;;;;5033671;28;20045;-79
2021/08/25 08:08:09;;;;;;;0.68;0.60;;;18.00;90.70;;;;;;5033924;28;20087;-79
2021/08/25 08:10:35;;;;;;;0.70;0.70;;;18.10;90.70;;;;;;5033565;28;20068;-80
2021/08/25 08:13:00;;;;;;;0.60;0.60;;;18.10;90.60;;;;;;5033731;28;20025;-80
2021/08/25 08:15:29;;;;;;;0.60;0.60;;;18.20;90.60;;;;;;5032997;28;20025;-78
2021/08/25 08:17:54;;;;;;;0.40;0.40;;;18.30;90.50;;;;;;5033461;28;20057;-79
2021/08/25 08:20:20;;;;;;;0.68;0.57;;;18.40;90.80;;;;;;5015939;28;20064;-79
2021/08/25 08:22:45;;;;;;;0.82;0.65;;;18.40;90.50;;;;;;5015709;28;20018;-81
2021/08/25 08:25:11;;;;;;;0.60;0.60;;;18.50;90.40;;;;;;5032969;28;20029;-78
2021/08/25 08:27:37;;;;;;;0.68;0.60;;;18.60;90.40;;;;;;5033435;28;20080;-79
2021/08/25 08:30:03;;;;;;;0.73;0.60;;;18.70;90.40;;;;;;5032990;28;20079;-79
2021/08/25 08:32:29;;;;;;;0.63;0.60;;;18.70;90.40;;;;;;5015603;28;20367;-78
2021/08/25 08:34:54;;;;;;;0.98;0.60;;;18.80;90.40;;;;;;5033266;28;20152;-78
2021/08/25 08:37:20;;;;;;;0.73;0.60;;;18.80;90.30;;;;;;5033416;28;20336;-78
2021/08/25 08:39:45;;;;;;;1.17;0.80;;;18.90;90.40;;;;;;5033103;28;20583;-78
2021/08/25 08:42:32;;;;;;;0.60;0.60;;;19.00;90.40;;;;;;5033339;28;20506;-78
2021/08/25 08:44:58;;;;;;;0.45;0.40;;;19.00;90.30;;;;;;5032743;28;20018;-77
2021/08/25 08:47:25;;;;;;;0.45;0.45;;;19.10;90.20;;;;;;5033360;28;20137;-77
2021/08/25 08:49:57;;;;;;;1.17;0.80;;;19.20;90.20;;;;;;5033027;28;20071;-77
2021/08/25 08:52:23;;;;;;;1.20;0.90;;;19.30;90.10;;;;;;5033003;28;20029;-79
2021/08/25 08:54:50;;;;;;;1.13;0.82;;;19.30;90.10;;;;;;5033152;28;20382;-77
2021/08/25 08:57:17;;;;;;;0.95;0.70;;;19.30;90.10;;;;;;5015309;28;20053;-78
2021/08/25 08:59:42;;;;;;;0.90;0.60;;;19.40;90.20;;;;;;5032422;28;20466;-77
2021/08/25 09:02:10;;;;;;;0.43;0.43;;;19.50;90.10;;;;;;5032926;28;20025;-78
2021/08/25 09:04:43;;;;;;;0.40;0.40;;;19.60;90.00;;;;;;5032867;28;20029;-78
2021/08/25 09:07:26;;;;;;;0.88;0.52;;;19.60;90.00;;;;;;5033021;28;20024;-77
2021/08/25 09:09:58;;;;;;;1.08;0.65;;;19.70;89.80;;;;;;5032877;28;20021;-78
2021/08/25 09:12:24;;;;;;;0.55;0.40;;;19.80;89.80;;;;;;5032509;28;20025;-76
2021/08/25 09:14:50;;;;;;;0.85;0.60;;;19.80;89.80;;;;;;5015194;28;20021;-78
2021/08/25 09:17:31;;;;;;;0.65;0.60;;;19.80;89.90;;;;;;5032971;28;20030;-77
2021/08/25 09:20:10;;;;;;;0.40;0.40;;;19.90;89.70;;;;;;5032768;28;20083;-79
2021/08/25 09:22:36;;;;;;;0.98;0.82;;;20.00;89.60;;;;;;5032816;28;20014;-79
2021/08/25 09:25:03;;;;;;;0.40;0.40;;;20.10;89.60;;;;;;5032772;28;20026;-79
2021/08/25 09:27:28;;;;;;;0.50;0.50;;;20.10;89.60;;;;;;5032305;28;20116;-79
2021/08/25 09:29:57;;;;;;;0.43;0.38;;;20.10;89.70;;;;;;5032804;28;20068;-79
2021/08/25 09:32:27;;;;;;;0.80;0.50;;;20.20;89.50;;;;;;5032677;28;20025;-78
2021/08/25 09:34:55;;;;;;;0.45;0.45;;;20.30;89.40;;;;;;5014930;28;20425;-78
2021/08/25 09:37:22;;;;;;;0.75;0.68;;;20.30;89.20;;;;;;5033021;28;20025;-78
2021/08/25 09:39:50;;;;;;;0.45;0.45;;;20.40;89.10;;;;;;5036115;28;20040;-75
2021/08/25 09:42:19;;;;;;;0.60;0.60;;;20.40;88.80;;;;;;5035832;28;20067;-77
2021/08/25 09:44:46;;;;;;;0.50;0.50;;;20.20;89.00;;;;;;5018380;28;20026;-77
2021/08/25 09:47:12;;;;;;;0.60;0.57;;;20.10;89.20;;;;;;5036191;28;20526;-77
2021/08/25 09:49:38;;;;;;;0.63;0.60;;;20.10;89.40;;;;;;5036030;28;20139;-79
2021/08/25 09:52:05;;;;;;;0.88;0.70;;;20.10;89.30;;;;;;5036023;28;20168;-76
2021/08/25 09:54:31;;;;;;;0.77;0.77;;;20.20;89.00;;;;;;5035882;28;20062;-77
2021/08/25 09:56:56;;;;;;;1.27;0.60;;;20.40;88.70;;;;;;5017814;28;20029;-79
2021/08/25 09:59:23;;;;;;;1.52;1.10;;;20.40;88.10;;;;;;5018168;28;20383;-80
2021/08/25 10:01:50;;;;;;;0.82;0.82;;;20.40;88.30;;;;;;5018077;28;20486;-77
2021/08/25 10:04:16;;;;;;;0.70;0.70;;;20.50;88.30;;;;;;5035840;28;20053;-76
2021/08/25 10:06:48;;;;;;;0.88;0.63;;;20.50;88.10;;;;;;5035832;28;20025;-76
2021/08/25 10:09:14;;;;;;;0.70;0.70;;;20.70;88.10;;;;;;5018031;28;20025;-77
2021/08/25 10:11:43;;;;;;;1.02;0.88;;;20.70;88.10;;;;;;5017360;28;20060;-76
2021/08/25 10:14:10;;;;;;;;;;;20.70;88.00;;;;;;5036017;28;20493;-78
2021/08/25 10:16:47;;;;;;;0.80;0.63;;;20.80;88.60;;;;;;5035757;28;20288;-77
2021/08/25 10:19:44;;;;;;;0.75;0.60;;;20.90;87.80;;;;;;5035423;28;20033;-78
2021/08/25 10:22:10;;;;;;;0.68;0.40;;;20.90;88.00;;;;;;5035572;28;20064;-76
2021/08/25 10:24:53;;;;;;;0.57;0.57;;;20.90;88.10;;;;;;5035047;28;20103;-77
2021/08/25 10:27:20;;;;;;;0.50;0.50;;;21.00;87.80;;;;;;5035647;28;20032;-77
2021/08/25 10:30:01;;;;;;;0.65;0.50;;;21.10;87.90;;;;;;5035265;28;20031;-77
2021/08/25 10:32:26;;;;;;;0.52;0.40;;;21.20;87.60;;;;;;5035352;28;20104;-77
2021/08/25 10:35:31;;;;;;;0.50;0.50;;;21.30;87.60;;;;;;5017502;28;20557;-77
2021/08/25 10:38:21;;;;;;;0.95;0.77;;;21.40;87.40;;;;;;4974105;28;20027;-76
2021/08/25 10:40:49;;;;;;;1.15;0.65;;;21.50;87.40;;;;;;4973755;28;20562;-77
2021/08/25 10:43:38;;;;;;;1.35;0.60;;;21.50;87.20;;;;;;4974288;28;20058;-76
2021/08/25 10:46:05;;;;;;;0.77;0.52;;;21.60;87.40;;;;;;4957795;28;20093;-76
2021/08/25 10:48:43;;;;;;;0.50;0.50;;;21.50;87.40;;;;;;4973801;28;20065;-77
2021/08/25 10:51:35;;;;;;;0.75;0.60;;;21.60;87.20;;;;;;4974016;28;20030;-77
2021/08/25 10:54:04;;;;;;;0.52;0.35;;;21.60;87.30;;;;;;4973716;28;20054;-75
2021/08/25 10:56:41;;;;;;;0.47;0.47;;;21.60;87.30;;;;;;4973798;28;20035;-76
2021/08/25 10:59:10;;;;;;;0.35;0.35;;;21.70;87.20;;;;;;4973841;28;20155;-76
2021/08/25 11:01:44;;;;;;;0.68;0.68;;;21.70;87.20;;;;;;4973911;28;20417;-76
2021/08/25 11:04:15;;;;;;;0.93;0.70;;;21.80;87.00;;;;;;4974016;28;20465;-75
2021/08/25 11:06:42;;;;;;;0.77;0.75;;;21.80;86.70;;;;;;4973677;28;20432;-75
2021/08/25 11:09:14;;;;;;;0.85;0.65;;;21.90;86.60;;;;;;4973212;28;20034;-76
2021/08/25 11:11:44;;;;;;;1.65;1.10;;;22.00;86.10;;;;;;4999468;28;20160;-76
2021/08/25 11:14:24;;;;;;;1.42;1.25;;;22.00;85.30;;;;;;5034496;28;20475;-76
2021/08/25 11:16:51;;;;;;;1.40;1.25;;;22.10;85.80;;;;;;5034443;28;20029;-75
2021/08/25 11:19:26;;;;;;;1.60;0.90;;;22.10;85.70;;;;;;5034356;28;20029;-76
2021/08/25 11:21:52;;;;;;;1.23;0.90;;;22.20;85.80;;;;;;5034300;28;20022;-77
2021/08/25 11:24:18;;;;;;;1.38;1.17;;;22.30;85.80;;;;;;5033982;28;20021;-81
2021/08/25 11:26:44;;;;;;;1.67;1.25;;;22.30;85.60;;;;;;5034180;28;20034;-77
2021/08/25 11:29:21;;;;;;;1.10;1.00;;;22.40;85.40;;;;;;5016521;28;20451;-75
2021/08/25 11:31:47;;;;;;;2.35;1.10;;;22.40;85.50;;;;;;5034215;28;20025;-74
2021/08/25 11:34:14;;;;;;;1.02;1.00;;;22.50;85.20;;;;;;5034087;28;20025;-75
2021/08/25 11:36:54;;;;;;;1.58;1.27;;;22.60;85.10;;;;;;5034015;28;20018;-75
2021/08/25 11:39:20;;;;;;;1.23;0.98;;;22.60;84.90;;;;;;5033798;28;20033;-75
2021/08/25 11:41:46;;;;;;;1.13;0.80;;;22.70;85.00;;;;;;5033886;28;20026;-74
2021/08/25 11:44:12;;;;;;;1.30;1.20;;;22.70;84.80;;;;;;5033738;28;20391;-77
2021/08/25 11:46:37;;;;;;;1.48;1.00;;;22.70;84.40;;;;;;5033950;28;20021;-76
2021/08/25 11:49:03;;;;;;;1.40;1.27;;;22.70;84.70;;;;;;5033569;28;20056;-74
2021/08/25 11:51:28;;;;;;;1.58;1.48;;;22.70;84.80;;;;;;5015655;28;20017;-74
2021/08/25 11:53:54;;;;;;;0.82;0.75;;;22.80;84.60;;;;;;5033877;28;20030;-73
2021/08/25 11:56:20;;;;;;;2.08;1.20;;;22.80;84.40;;;;;;5033769;28;20061;-73
2021/08/25 11:58:47;;;;;;;0.60;0.60;;;22.90;84.40;;;;;;5015913;28;20075;-75
2021/08/25 12:01:24;;;;;;;1.75;1.40;;;23.00;84.10;;;;;;5033070;28;20029;-79
2021/08/25 12:03:50;;;;;;;1.40;1.23;;;22.90;83.10;;;;;;5033719;28;20037;-76
2021/08/25 12:06:19;;;;;;;3.42;2.00;;;22.80;84.30;;;;;;5032975;28;20025;-77
2021/08/25 12:08:46;;;;;;;;;;;22.90;82.60;;;;;;5034059;28;20088;-77
2021/08/25 12:11:14;;;;;;;1.58;1.30;;;22.90;84.60;;;;;;5033593;28;19905;-74
2021/08/25 12:13:44;;;;;;;2.13;1.73;;;23.10;83.50;;;;;;5033506;28;20021;-77
2021/08/25 12:16:21;;;;;;;1.83;1.30;;;23.30;83.00;;;;;;5033415;28;20021;-78
2021/08/25 12:18:48;;;;;;;1.60;1.13;;;23.80;82.40;;;;;;5033306;28;20038;-76
2021/08/25 12:21:13;;;;;;;1.42;1.00;;;24.10;81.80;;;;;;5033550;28;20021;-77
2021/08/25 12:23:55;;;;;;;1.58;1.48;;;24.30;81.70;;;;;;5034057;28;20025;-77
2021/08/25 12:26:20;;;;;;;1.10;0.88;;;24.60;81.00;;;;;;5033490;28;20033;-80
2021/08/25 12:28:46;;;;;;;1.08;0.98;;;24.60;81.10;;;;;;5033231;28;20544;-75
2021/08/25 12:31:15;;;;;;;1.52;1.17;;;24.80;80.80;;;;;;5033297;28;20100;-77
2021/08/25 12:33:47;;;;;;;1.38;1.23;;;24.90;80.00;;;;;;5033185;28;20049;-76
2021/08/25 12:36:31;;;;;;;1.30;1.20;;;24.70;80.70;;;;;;5032797;28;20018;-75
2021/08/25 12:39:05;;;;;;;1.00;1.00;;;24.50;81.20;;;;;;5033241;28;20544;-76
2021/08/25 12:41:32;;;;;;;1.10;0.98;;;24.40;81.60;;;;;;5033083;28;20029;-75
2021/08/25 12:43:57;;;;;;;1.15;1.05;;;23.80;81.70;;;;;;5033212;28;20021;-75
2021/08/25 12:46:23;;;;;;;0.95;0.90;;;23.20;83.20;;;;;;5015229;28;20029;-75
2021/08/25 12:48:48;;;;;;;1.00;0.90;;;23.30;83.90;;;;;;5032679;28;20107;-74